Time;durP1;ratioP1;P1;durP2;ratioP2;P2;SDS_P1;SDS_P2;PMS_P1;PMS_P2;Temp;Humidity;BMP_temperature;BMP_pressure;BME280_temperature;BME280_humidity;BME280_pressure;Samples;Min_cycle;Max_cycle;Signal;HPM_P1;HPM_P2
2021/07/16 00:01:50;;;;;;;6.15;4.32;;;23.70;99.90;;;;;;4360101;32;20074;-65
2021/07/16 00:04:16;;;;;;;7.30;4.60;;;23.70;99.90;;;;;;4360093;32;20167;-65
2021/07/16 00:06:42;;;;;;;7.80;4.43;;;23.60;99.90;;;;;;4335876;32;20098;-65
2021/07/16 00:09:09;;;;;;;6.78;4.47;;;23.60;99.90;;;;;;4335172;32;20558;-65
2021/07/16 00:11:35;;;;;;;6.10;4.18;;;23.60;99.90;;;;;;4359870;32;20082;-65
2021/07/16 00:14:02;;;;;;;6.62;4.70;;;23.60;99.90;;;;;;4361788;32;20074;-65
2021/07/16 00:16:29;;;;;;;5.62;4.18;;;23.70;99.90;;;;;;4354847;32;20158;-65
2021/07/16 00:18:55;;;;;;;6.55;4.28;;;23.70;99.90;;;;;;4344464;32;20081;-65
2021/07/16 00:21:22;;;;;;;7.35;4.87;;;23.60;99.90;;;;;;4347859;32;20177;-65
2021/07/16 00:23:48;;;;;;;5.53;4.30;;;23.60;99.90;;;;;;4360040;32;20078;-65
2021/07/16 00:26:15;;;;;;;7.60;4.62;;;23.70;99.90;;;;;;4335393;32;20436;-65
2021/07/16 00:28:42;;;;;;;5.68;4.28;;;23.60;99.90;;;;;;4335453;32;20097;-65
2021/07/16 00:31:08;;;;;;;6.25;4.50;;;23.70;99.90;;;;;;4347439;32;20520;-65
2021/07/16 00:33:34;;;;;;;8.40;5.45;;;23.70;99.90;;;;;;4335503;32;20083;-65
2021/07/16 00:36:00;;;;;;;6.35;4.50;;;23.70;99.90;;;;;;4348119;32;20094;-65
2021/07/16 00:38:27;;;;;;;6.15;4.30;;;23.80;99.90;;;;;;4350877;32;20083;-64
2021/07/16 00:40:53;;;;;;;7.43;4.72;;;23.70;99.90;;;;;;4363561;32;20473;-65
2021/07/16 00:43:19;;;;;;;5.85;4.32;;;23.70;99.90;;;;;;4364589;32;20145;-64
2021/07/16 00:45:45;;;;;;;8.45;4.97;;;23.70;99.90;;;;;;4363170;32;20086;-65
2021/07/16 00:48:11;;;;;;;6.25;4.60;;;23.80;99.90;;;;;;4350964;32;20070;-65
2021/07/16 00:50:39;;;;;;;6.57;4.40;;;23.80;99.90;;;;;;4350201;32;20155;-65
2021/07/16 00:53:09;;;;;;;7.47;4.30;;;23.80;99.90;;;;;;4362453;32;20078;-65
2021/07/16 00:55:36;;;;;;;7.80;4.50;;;23.80;99.90;;;;;;4362946;32;20167;-65
2021/07/16 00:58:02;;;;;;;9.02;4.82;;;23.70;99.90;;;;;;4350066;32;20512;-65
2021/07/16 01:00:29;;;;;;;7.07;4.60;;;23.70;99.90;;;;;;4349904;32;20075;-65
2021/07/16 01:02:55;;;;;;;8.57;4.80;;;23.70;99.90;;;;;;4350007;32;20176;-65
2021/07/16 01:05:21;;;;;;;6.87;4.68;;;23.70;99.90;;;;;;4350066;32;20163;-65
2021/07/16 01:07:50;;;;;;;8.70;5.43;;;23.70;99.90;;;;;;4337695;32;20070;-65
2021/07/16 01:10:17;;;;;;;6.78;4.93;;;23.60;99.90;;;;;;4362632;32;20171;-65
2021/07/16 01:12:44;;;;;;;6.65;4.70;;;23.60;99.90;;;;;;4338588;32;20147;-65
2021/07/16 01:15:15;;;;;;;7.90;4.87;;;23.70;99.90;;;;;;4350870;32;20191;-64
2021/07/16 01:17:43;;;;;;;7.07;4.90;;;23.70;99.90;;;;;;4350406;32;20157;-65
2021/07/16 01:20:11;;;;;;;7.07;4.55;;;23.70;99.90;;;;;;4337882;32;20141;-64
2021/07/16 01:22:40;;;;;;;7.45;4.80;;;23.70;99.90;;;;;;4349975;32;20177;-65
2021/07/16 01:25:15;;;;;;;6.22;4.50;;;23.80;99.90;;;;;;4337592;32;20090;-65
2021/07/16 01:27:42;;;;;;;6.03;4.50;;;23.80;99.90;;;;;;4349955;32;20070;-65
2021/07/16 01:30:11;;;;;;;8.82;4.75;;;23.80;99.90;;;;;;4337442;32;20092;-65
2021/07/16 01:32:37;;;;;;;8.38;4.53;;;23.90;99.90;;;;;;4350068;32;20094;-65
2021/07/16 01:35:05;;;;;;;5.97;4.70;;;23.90;99.90;;;;;;4349494;32;20102;-64
2021/07/16 01:37:32;;;;;;;6.97;4.87;;;23.90;99.90;;;;;;4337425;32;20589;-65
2021/07/16 01:39:59;;;;;;;5.95;4.68;;;24.00;99.90;;;;;;4362060;32;20081;-65
2021/07/16 01:42:36;;;;;;;6.68;4.85;;;24.00;99.90;;;;;;4337352;32;20097;-65
2021/07/16 01:45:12;;;;;;;8.57;4.82;;;23.90;99.90;;;;;;4337774;32;20074;-64
2021/07/16 01:47:54;;;;;;;6.57;4.70;;;24.10;99.90;;;;;;4349943;32;20079;-65
2021/07/16 01:50:20;;;;;;;7.53;5.00;;;24.10;99.90;;;;;;4351813;32;20082;-65
2021/07/16 01:52:47;;;;;;;8.70;4.90;;;24.30;99.90;;;;;;4349224;32;20453;-65
2021/07/16 01:55:18;;;;;;;6.10;4.72;;;24.40;99.90;;;;;;4349251;32;20158;-65
2021/07/16 01:57:55;;;;;;;7.03;4.80;;;24.40;99.90;;;;;;4349622;32;20081;-65
2021/07/16 02:00:27;;;;;;;8.18;5.12;;;24.40;99.90;;;;;;4361462;32;20075;-65
2021/07/16 02:02:57;;;;;;;7.90;5.20;;;24.40;99.90;;;;;;4338118;32;20599;-65
2021/07/16 02:05:23;;;;;;;7.10;4.70;;;24.40;99.90;;;;;;4337158;32;20075;-65
2021/07/16 02:07:52;;;;;;;7.93;4.82;;;24.40;99.90;;;;;;4349048;32;20102;-65
2021/07/16 02:10:20;;;;;;;7.60;5.05;;;24.30;99.90;;;;;;4349694;32;20097;-66
2021/07/16 02:12:46;;;;;;;6.57;5.20;;;24.30;99.90;;;;;;4348998;32;20078;-65
2021/07/16 02:15:18;;;;;;;7.15;5.00;;;24.40;99.90;;;;;;4336639;32;20108;-65
2021/07/16 02:17:45;;;;;;;11.32;5.15;;;24.30;99.90;;;;;;4337214;32;20240;-66
2021/07/16 02:20:34;;;;;;;7.40;5.00;;;24.30;99.90;;;;;;4336864;32;20082;-64
2021/07/16 02:23:04;;;;;;;5.70;4.20;;;24.40;99.90;;;;;;4350394;32;20075;-65
2021/07/16 02:25:31;;;;;;;9.93;5.03;;;24.50;99.90;;;;;;4350052;32;20090;-64
2021/07/16 02:28:24;;;;;;;6.75;4.80;;;24.60;99.90;;;;;;4336413;32;20066;-65
2021/07/16 02:30:52;;;;;;;10.68;5.30;;;24.60;99.90;;;;;;4338952;32;20082;-65
2021/07/16 02:33:19;;;;;;;8.43;5.25;;;24.70;99.90;;;;;;4348757;32;20090;-65
2021/07/16 02:35:46;;;;;;;8.02;5.45;;;24.70;99.90;;;;;;4336729;32;20079;-64
2021/07/16 02:38:12;;;;;;;6.93;4.90;;;24.60;99.90;;;;;;4336469;32;20074;-65
2021/07/16 02:40:39;;;;;;;8.43;4.93;;;24.50;99.90;;;;;;4348436;32;20137;-65
2021/07/16 02:43:05;;;;;;;7.80;5.05;;;24.60;99.90;;;;;;4336125;32;20063;-64
2021/07/16 02:45:32;;;;;;;6.65;4.68;;;24.80;99.90;;;;;;4348411;32;20105;-64
2021/07/16 02:47:59;;;;;;;8.73;5.65;;;24.80;99.90;;;;;;4336724;32;20067;-65
2021/07/16 02:50:28;;;;;;;7.22;5.15;;;24.80;99.90;;;;;;4336797;32;20089;-65
2021/07/16 02:52:55;;;;;;;8.70;5.12;;;25.00;99.90;;;;;;4347350;32;20176;-66
2021/07/16 02:55:21;;;;;;;6.50;5.15;;;25.00;99.90;;;;;;4367912;32;20078;-65
2021/07/16 02:57:48;;;;;;;8.38;5.53;;;25.00;99.90;;;;;;4349149;32;20078;-65
2021/07/16 03:00:20;;;;;;;11.10;5.53;;;25.10;99.90;;;;;;4323142;32;20097;-65
2021/07/16 03:02:47;;;;;;;7.20;5.43;;;24.90;99.90;;;;;;4337071;32;20074;-66
2021/07/16 03:05:17;;;;;;;6.50;5.20;;;25.00;99.90;;;;;;4336027;32;20186;-65
2021/07/16 03:07:43;;;;;;;6.70;5.15;;;25.00;99.90;;;;;;4336175;32;20070;-65
2021/07/16 03:10:13;;;;;;;8.77;5.32;;;25.10;99.90;;;;;;4347912;32;20150;-66
2021/07/16 03:12:40;;;;;;;7.50;5.75;;;24.90;99.90;;;;;;4336417;32;20085;-65
2021/07/16 03:15:18;;;;;;;10.93;5.75;;;25.00;99.90;;;;;;4336005;32;20063;-65
2021/07/16 03:17:44;;;;;;;8.68;5.80;;;24.80;99.90;;;;;;4360782;32;20098;-65
2021/07/16 03:20:33;;;;;;;8.00;5.55;;;24.80;99.90;;;;;;4348303;32;20078;-65
2021/07/16 03:23:00;;;;;;;7.70;5.65;;;25.00;99.90;;;;;;4348574;32;20089;-64
2021/07/16 03:25:27;;;;;;;10.75;6.10;;;25.00;99.90;;;;;;4347882;32;20104;-65
2021/07/16 03:27:54;;;;;;;8.38;5.55;;;25.00;99.90;;;;;;4360576;32;20089;-65
2021/07/16 03:30:26;;;;;;;9.38;5.62;;;24.80;99.90;;;;;;4336511;32;20078;-64
2021/07/16 03:32:53;;;;;;;9.13;5.40;;;24.70;99.90;;;;;;4361024;32;20074;-65
2021/07/16 03:35:20;;;;;;;6.50;5.35;;;24.80;99.90;;;;;;4335357;32;20089;-65
2021/07/16 03:37:46;;;;;;;6.57;5.25;;;25.00;99.90;;;;;;4347789;32;20082;-65
2021/07/16 03:42:52;;;;;;;7.45;5.32;;;24.90;99.90;;;;;;3857097;37;20078;-64
2021/07/16 03:45:18;;;;;;;7.97;5.95;;;25.20;99.90;;;;;;4418874;32;20081;-65
2021/07/16 03:47:46;;;;;;;8.18;5.82;;;25.20;99.90;;;;;;4393090;32;20067;-65
2021/07/16 03:50:15;;;;;;;6.57;5.55;;;25.30;99.90;;;;;;4406180;32;20519;-64
2021/07/16 03:52:41;;;;;;;9.85;5.57;;;25.20;99.90;;;;;;4406372;32;20179;-65
2021/07/16 03:55:09;;;;;;;8.30;5.78;;;25.50;99.90;;;;;;4393161;32;20077;-65
2021/07/16 03:57:43;;;;;;;6.70;5.20;;;25.50;99.90;;;;;;4393503;32;20076;-64
2021/07/16 04:00:10;;;;;;;8.88;5.87;;;25.40;99.90;;;;;;4405777;32;20488;-66
2021/07/16 04:02:36;;;;;;;10.60;5.57;;;25.50;99.90;;;;;;4406316;32;20073;-65
2021/07/16 04:05:03;;;;;;;7.72;5.37;;;25.60;99.70;;;;;;4380604;32;20081;-65
2021/07/16 04:07:31;;;;;;;9.02;6.18;;;25.60;99.80;;;;;;4393093;32;20081;-65
2021/07/16 04:09:57;;;;;;;6.85;5.45;;;25.70;97.50;;;;;;4418107;32;20412;-65
2021/07/16 04:12:23;;;;;;;8.02;5.80;;;25.70;96.70;;;;;;4393097;32;20116;-64
2021/07/16 04:14:54;;;;;;;9.90;5.57;;;25.70;95.40;;;;;;4417996;32;20081;-65
2021/07/16 04:17:23;;;;;;;7.68;5.72;;;25.70;93.70;;;;;;4406332;32;20077;-64
2021/07/16 04:19:49;;;;;;;7.40;5.80;;;25.90;93.00;;;;;;4405866;32;20084;-65
2021/07/16 04:22:17;;;;;;;7.62;5.18;;;25.90;91.70;;;;;;4380595;32;20085;-65
2021/07/16 04:24:43;;;;;;;7.53;5.68;;;26.10;89.60;;;;;;4393171;32;20156;-65
2021/07/16 04:27:11;;;;;;;9.63;5.90;;;26.20;86.30;;;;;;4392819;32;20073;-65
2021/07/16 04:29:38;;;;;;;7.75;5.70;;;26.20;88.60;;;;;;4405512;32;20152;-65
2021/07/16 04:32:05;;;;;;;10.45;5.82;;;26.20;86.00;;;;;;4392889;32;20074;-65
2021/07/16 04:34:33;;;;;;;8.55;5.85;;;26.40;82.90;;;;;;4392616;32;20088;-65
2021/07/16 04:37:00;;;;;;;7.43;5.72;;;26.40;78.10;;;;;;4396644;32;20065;-65
2021/07/16 04:39:26;;;;;;;8.65;5.82;;;28.10;65.30;;;;;;4390576;32;20243;-65
2021/07/16 04:41:52;;;;;;;7.60;5.60;;;29.00;56.40;;;;;;4390747;32;20073;-65
2021/07/16 04:44:20;;;;;;;8.55;5.45;;;29.60;52.10;;;;;;4365399;32;20096;-65
2021/07/16 04:46:46;;;;;;;8.00;5.37;;;29.80;49.50;;;;;;4377701;32;20069;-65
2021/07/16 04:49:12;;;;;;;8.98;6.10;;;29.60;50.60;;;;;;4390370;32;20073;-65
2021/07/16 04:51:38;;;;;;;8.90;5.18;;;29.90;47.80;;;;;;4415096;32;20169;-65
2021/07/16 04:54:05;;;;;;;8.70;5.70;;;30.60;44.90;;;;;;4380561;32;20165;-65
2021/07/16 04:56:32;;;;;;;8.35;6.35;;;31.40;42.90;;;;;;4367410;32;20073;-64
2021/07/16 04:58:58;;;;;;;6.60;5.70;;;30.80;43.80;;;;;;4380066;32;20096;-65
2021/07/16 05:01:25;;;;;;;7.70;5.90;;;30.20;45.20;;;;;;4367107;32;20082;-65
2021/07/16 05:04:04;;;;;;;8.57;5.55;;;30.50;45.50;;;;;;3857218;37;20070;-65
2021/07/16 05:06:31;;;;;;;8.32;5.97;;;30.10;46.00;;;;;;4393104;32;20430;-65
2021/07/16 05:08:57;;;;;;;6.80;5.60;;;30.00;47.80;;;;;;4413665;32;20159;-65
2021/07/16 05:11:23;;;;;;;10.52;5.90;;;29.90;48.00;;;;;;4389308;32;20576;-67
2021/07/16 05:13:49;;;;;;;8.48;5.72;;;30.00;47.30;;;;;;4387363;32;20081;-68
2021/07/16 05:16:16;;;;;;;8.88;5.60;;;30.70;46.10;;;;;;4377657;32;20097;-68
2021/07/16 05:18:43;;;;;;;6.25;5.62;;;31.70;42.50;;;;;;4391307;32;20107;-75
2021/07/16 05:21:11;;;;;;;7.03;4.95;;;31.40;43.20;;;;;;4395410;32;20077;-72
2021/07/16 05:23:37;;;;;;;6.62;5.25;;;31.60;43.20;;;;;;4386703;32;20077;-76
2021/07/16 05:26:03;;;;;;;8.10;6.05;;;30.60;44.40;;;;;;4388310;32;20078;-72
2021/07/16 05:28:29;;;;;;;8.68;5.97;;;31.50;41.60;;;;;;4383807;32;20099;-72
2021/07/16 05:30:56;;;;;;;6.97;5.57;;;31.90;40.30;;;;;;4382176;32;20074;-73
2021/07/16 05:33:23;;;;;;;9.07;6.30;;;31.00;42.10;;;;;;4384865;32;20093;-72
2021/07/16 05:35:49;;;;;;;9.05;5.62;;;31.20;41.70;;;;;;4389273;32;20093;-74
2021/07/16 05:38:16;;;;;;;7.12;5.37;;;31.30;40.80;;;;;;4374814;32;20073;-74
2021/07/16 05:40:42;;;;;;;6.05;5.10;;;31.40;42.50;;;;;;4391022;32;20089;-73
2021/07/16 05:43:09;;;;;;;7.87;5.97;;;31.60;40.60;;;;;;4375343;32;20466;-72
2021/07/16 05:45:36;;;;;;;9.77;5.80;;;31.00;41.70;;;;;;4381704;32;20449;-74
2021/07/16 05:48:09;;;;;;;8.32;5.57;;;30.50;43.50;;;;;;4389832;32;20149;-84
2021/07/16 05:50:39;;;;;;;6.90;5.75;;;31.10;42.70;;;;;;4372243;32;20066;-75
2021/07/16 05:53:06;;;;;;;7.20;6.25;;;31.80;40.70;;;;;;4383646;32;20113;-74
2021/07/16 05:55:33;;;;;;;9.43;6.07;;;32.10;40.50;;;;;;4387636;32;20062;-73
2021/07/16 05:58:00;;;;;;;7.87;5.55;;;32.10;39.70;;;;;;4375097;32;20503;-76
2021/07/16 06:00:27;;;;;;;9.35;5.78;;;32.00;39.90;;;;;;4398019;32;20070;-73
2021/07/16 06:02:54;;;;;;;8.98;6.15;;;31.80;37.90;;;;;;4376906;32;20054;-70
2021/07/16 06:05:20;;;;;;;8.82;6.10;;;32.30;38.40;;;;;;4386795;32;20146;-72
2021/07/16 06:07:47;;;;;;;6.70;5.68;;;32.10;38.20;;;;;;4362163;32;20619;-82
2021/07/16 06:10:13;;;;;;;8.10;5.90;;;31.00;41.20;;;;;;4376401;32;20069;-78
2021/07/16 06:12:39;;;;;;;9.73;6.00;;;30.80;42.50;;;;;;4382990;32;20156;-76
2021/07/16 06:15:07;;;;;;;9.18;6.18;;;30.20;43.10;;;;;;4376962;32;20074;-79
2021/07/16 06:17:33;;;;;;;8.52;6.45;;;30.30;43.40;;;;;;4362666;32;20080;-74
2021/07/16 06:20:00;;;;;;;11.02;6.20;;;30.50;43.00;;;;;;4378779;32;20072;-76
2021/07/16 06:22:26;;;;;;;7.60;6.45;;;32.20;39.20;;;;;;4375518;32;20097;-78
2021/07/16 06:24:53;;;;;;;9.50;6.60;;;32.40;38.00;;;;;;4355685;32;20178;-73
2021/07/16 06:27:19;;;;;;;10.30;6.28;;;32.50;37.20;;;;;;4377058;32;20073;-73
2021/07/16 06:29:45;;;;;;;9.77;6.22;;;32.10;38.60;;;;;;4384766;32;20074;-72
2021/07/16 06:32:11;;;;;;;9.25;6.15;;;32.00;39.90;;;;;;4372140;32;20081;-74
2021/07/16 06:34:37;;;;;;;8.20;6.55;;;31.20;40.60;;;;;;4386392;32;20144;-74
2021/07/16 06:37:04;;;;;;;11.75;6.37;;;31.10;41.70;;;;;;4378316;32;20119;-70
2021/07/16 06:39:30;;;;;;;7.43;6.53;;;31.30;41.80;;;;;;4365065;32;20086;-73
2021/07/16 06:41:56;;;;;;;10.10;6.50;;;30.50;42.90;;;;;;4376399;32;20066;-77
2021/07/16 06:44:23;;;;;;;9.48;6.68;;;30.40;45.10;;;;;;4375448;32;20117;-77
2021/07/16 06:46:49;;;;;;;8.88;7.05;;;30.60;44.10;;;;;;4373417;32;20512;-75
2021/07/16 06:49:15;;;;;;;7.50;6.30;;;31.00;42.40;;;;;;4376299;32;20075;-80
2021/07/16 06:51:43;;;;;;;9.55;6.40;;;31.20;41.40;;;;;;4368735;32;20449;-74
2021/07/16 06:54:09;;;;;;;7.60;6.37;;;31.00;42.70;;;;;;4372068;32;20507;-83
2021/07/16 06:56:36;;;;;;;13.25;6.25;;;31.70;41.20;;;;;;4357165;32;20074;-75
2021/07/16 06:59:04;;;;;;;7.93;6.35;;;31.00;42.70;;;;;;4378739;32;20623;-75
2021/07/16 07:01:30;;;;;;;8.52;6.57;;;31.40;43.30;;;;;;4366578;32;20467;-72
2021/07/16 07:03:56;;;;;;;9.43;6.47;;;31.30;41.80;;;;;;4374486;32;20089;-79
2021/07/16 07:06:23;;;;;;;9.43;6.55;;;31.40;41.90;;;;;;4374724;32;20168;-78
2021/07/16 07:08:49;;;;;;;8.40;6.55;;;31.00;42.50;;;;;;4343026;32;20074;-76
2021/07/16 07:11:15;;;;;;;15.07;6.43;;;31.30;42.10;;;;;;4367085;32;20073;-77
2021/07/16 07:13:41;;;;;;;10.63;6.53;;;31.40;41.30;;;;;;4373185;32;20063;-79
2021/07/16 07:16:07;;;;;;;8.85;6.95;;;31.90;40.00;;;;;;4385286;32;20500;-79
2021/07/16 07:18:34;;;;;;;7.40;6.15;;;31.40;40.90;;;;;;4386272;32;20065;-81
2021/07/16 07:21:00;;;;;;;10.80;6.47;;;31.40;41.30;;;;;;4374299;32;20143;-77
2021/07/16 07:23:26;;;;;;;8.60;6.57;;;31.70;41.30;;;;;;4356062;32;20068;-76
2021/07/16 07:25:52;;;;;;;9.15;6.90;;;31.20;40.90;;;;;;4355862;32;20070;-79
2021/07/16 07:28:18;;;;;;;9.68;7.30;;;31.50;40.90;;;;;;4361271;32;20154;-74
2021/07/16 07:30:44;;;;;;;8.20;6.35;;;31.70;40.10;;;;;;4358928;32;20125;-72
2021/07/16 07:33:11;;;;;;;10.02;6.40;;;31.30;41.40;;;;;;4383698;32;20110;-77
2021/07/16 07:35:37;;;;;;;8.68;6.53;;;31.00;41.30;;;;;;4359649;32;20101;-74
2021/07/16 07:38:04;;;;;;;8.70;6.80;;;31.20;42.10;;;;;;4376568;32;20058;-75
2021/07/16 07:40:30;;;;;;;8.45;6.05;;;31.30;41.20;;;;;;4377347;32;20084;-74
2021/07/16 07:42:58;;;;;;;9.00;7.12;;;31.70;39.60;;;;;;4366466;32;20089;-77
2021/07/16 07:45:24;;;;;;;8.05;7.07;;;31.70;39.90;;;;;;4347891;32;20166;-76
2021/07/16 07:47:51;;;;;;;8.45;6.75;;;31.50;38.70;;;;;;4372430;32;20070;-72
2021/07/16 07:50:18;;;;;;;8.15;6.68;;;31.60;38.90;;;;;;4387296;32;20054;-75
2021/07/16 07:52:45;;;;;;;7.78;6.12;;;31.30;39.60;;;;;;4351045;32;20062;-74
2021/07/16 07:55:11;;;;;;;7.97;6.10;;;31.40;40.00;;;;;;4382808;32;20086;-72
2021/07/16 07:57:38;;;;;;;8.10;6.70;;;31.40;40.40;;;;;;4378357;32;20109;-83
2021/07/16 08:00:08;;;;;;;9.77;7.22;;;31.00;41.50;;;;;;4355333;32;20154;-75
2021/07/16 08:02:34;;;;;;;8.38;6.78;;;31.00;41.10;;;;;;4364817;32;20067;-75
2021/07/16 08:05:01;;;;;;;10.88;6.65;;;31.60;39.90;;;;;;4350396;32;20057;-76
2021/07/16 08:07:27;;;;;;;9.95;6.05;;;32.10;37.50;;;;;;4362531;32;20166;-73
2021/07/16 08:09:53;;;;;;;9.55;6.62;;;31.30;38.00;;;;;;4355916;32;20640;-73
2021/07/16 08:12:20;;;;;;;9.80;6.97;;;31.10;38.80;;;;;;4361285;32;20545;-78
2021/07/16 08:14:46;;;;;;;9.43;6.80;;;31.50;38.00;;;;;;4348226;32;20090;-66
2021/07/16 08:17:12;;;;;;;7.93;6.70;;;32.40;37.20;;;;;;4361504;32;20077;-71
2021/07/16 08:19:38;;;;;;;9.27;6.68;;;32.10;36.40;;;;;;4377491;32;20078;-74
2021/07/16 08:22:08;;;;;;;9.80;7.25;;;32.00;37.50;;;;;;4377891;32;20065;-74
2021/07/16 08:24:34;;;;;;;10.07;7.37;;;31.60;38.10;;;;;;4387009;32;20512;-74
2021/07/16 08:27:00;;;;;;;8.38;6.80;;;31.50;38.90;;;;;;4354463;32;20081;-77
2021/07/16 08:29:27;;;;;;;14.35;7.03;;;31.90;37.70;;;;;;4369448;32;20485;-78
2021/07/16 08:31:53;;;;;;;10.95;7.35;;;31.90;37.90;;;;;;4363885;32;20070;-75
2021/07/16 08:34:19;;;;;;;8.63;7.00;;;32.10;38.00;;;;;;4368745;32;20063;-74
2021/07/16 08:36:45;;;;;;;10.98;6.78;;;31.60;38.10;;;;;;4354898;32;20062;-80
2021/07/16 08:39:12;;;;;;;9.07;6.70;;;31.40;39.10;;;;;;4362670;32;20073;-83
2021/07/16 08:41:38;;;;;;;9.80;6.00;;;31.40;37.40;;;;;;4363855;32;20443;-75
2021/07/16 08:44:05;;;;;;;10.50;6.22;;;31.10;36.30;;;;;;4367529;32;20089;-76
2021/07/16 08:46:31;;;;;;;7.30;6.00;;;31.10;35.70;;;;;;4378503;32;20523;-75
2021/07/16 08:48:58;;;;;;;8.32;6.72;;;31.00;35.50;;;;;;4356297;32;20536;-76
2021/07/16 08:51:24;;;;;;;8.30;6.60;;;30.90;38.60;;;;;;4375997;32;20101;-77
2021/07/16 08:53:54;;;;;;;9.55;6.55;;;30.60;39.20;;;;;;4380448;32;20098;-74
2021/07/16 08:56:21;;;;;;;10.07;6.55;;;30.60;40.20;;;;;;4365811;32;20145;-75
2021/07/16 08:58:47;;;;;;;9.77;6.95;;;30.50;40.60;;;;;;4364288;32;20081;-76
2021/07/16 09:01:13;;;;;;;8.95;7.32;;;30.40;41.10;;;;;;4366081;32;20077;-74
2021/07/16 09:04:01;;;;;;;16.45;6.53;;;30.40;42.40;;;;;;4371433;32;20081;-75
2021/07/16 09:06:50;;;;;;;15.02;5.87;;;28.40;49.20;;;;;;4368740;32;20067;-74
2021/07/16 09:09:19;;;;;;;11.43;6.10;;;27.50;55.90;;;;;;4381298;32;20086;-71
2021/07/16 09:11:51;;;;;;;13.82;6.00;;;27.00;61.90;;;;;;4344689;32;20499;-62
2021/07/16 09:14:21;;;;;;;14.02;5.60;;;26.90;66.40;;;;;;4375014;32;20070;-64
2021/07/16 09:17:07;;;;;;;9.60;5.60;;;26.80;65.60;;;;;;4370877;32;20165;-64
2021/07/16 09:19:45;;;;;;;6.93;5.32;;;27.30;67.50;;;;;;4365232;32;20092;-63
2021/07/16 09:22:14;;;;;;;9.45;6.07;;;27.40;62.60;;;;;;4375137;32;20071;-63
2021/07/16 09:24:42;;;;;;;11.15;5.87;;;28.00;60.80;;;;;;4356965;32;20515;-61
2021/07/16 09:27:35;;;;;;;7.50;4.65;;;28.20;54.90;;;;;;4380808;32;20428;-65
2021/07/16 09:30:26;;;;;;;8.15;5.05;;;28.30;50.20;;;;;;4374372;32;20151;-62
2021/07/16 09:32:57;;;;;;;10.18;5.37;;;28.40;51.00;;;;;;4370115;32;20097;-62
2021/07/16 09:35:40;;;;;;;7.15;5.20;;;28.60;52.60;;;;;;4365435;32;20169;-65
2021/07/16 09:38:14;;;;;;;8.10;4.93;;;28.30;51.00;;;;;;4385100;32;20105;-63
2021/07/16 09:40:50;;;;;;;8.90;4.70;;;28.40;51.20;;;;;;4378906;32;20081;-63
2021/07/16 09:43:21;;;;;;;7.62;4.18;;;28.30;47.50;;;;;;4381320;32;20085;-66
2021/07/16 09:45:50;;;;;;;6.20;4.80;;;28.20;47.50;;;;;;4372451;32;20059;-66
2021/07/16 09:48:34;;;;;;;6.65;4.90;;;28.40;48.20;;;;;;4382124;32;20104;-62
2021/07/16 09:51:26;;;;;;;8.70;5.80;;;28.10;49.10;;;;;;4381944;32;20181;-64
2021/07/16 09:54:00;;;;;;;7.72;5.53;;;28.00;49.90;;;;;;4374377;32;20570;-65
2021/07/16 09:56:37;;;;;;;9.00;5.15;;;27.70;52.10;;;;;;4374904;32;20098;-64
2021/07/16 09:59:10;;;;;;;9.10;5.32;;;27.50;54.00;;;;;;4370208;32;20488;-67
2021/07/16 10:01:42;;;;;;;6.12;4.82;;;27.40;55.60;;;;;;4373287;32;20106;-64
2021/07/16 10:04:20;;;;;;;8.20;5.35;;;27.60;55.60;;;;;;4375050;32;20136;-63
2021/07/16 10:06:48;;;;;;;11.05;6.12;;;27.80;57.00;;;;;;4378056;32;20105;-63
2021/07/16 10:09:18;;;;;;;9.35;6.03;;;28.00;56.70;;;;;;4373928;32;20619;-63
2021/07/16 10:11:54;;;;;;;7.90;5.70;;;28.80;53.50;;;;;;4349090;32;20102;-62
2021/07/16 10:14:20;;;;;;;9.35;5.20;;;29.70;48.90;;;;;;4381041;32;20070;-69
2021/07/16 10:16:49;;;;;;;7.35;5.90;;;29.90;47.20;;;;;;4347054;32;20105;-70
2021/07/16 10:19:19;;;;;;;9.38;5.72;;;29.70;47.80;;;;;;4380846;32;20156;-68
2021/07/16 10:21:46;;;;;;;6.82;5.12;;;30.50;44.00;;;;;;4361854;32;20094;-64
2021/07/16 10:24:14;;;;;;;8.77;5.90;;;29.80;43.20;;;;;;4372641;32;20588;-68
2021/07/16 10:26:42;;;;;;;9.27;6.15;;;30.60;44.30;;;;;;4378295;32;20061;-64
2021/07/16 10:29:38;;;;;;;9.07;5.60;;;30.40;43.30;;;;;;4355286;32;20070;-64
2021/07/16 10:32:06;;;;;;;7.00;5.60;;;30.50;43.80;;;;;;4375349;32;20097;-65
2021/07/16 10:34:41;;;;;;;7.78;5.40;;;30.40;42.50;;;;;;4373011;32;20436;-69
2021/07/16 10:37:10;;;;;;;6.22;5.60;;;30.30;43.30;;;;;;4367731;32;20113;-68
2021/07/16 10:39:48;;;;;;;6.95;5.93;;;29.80;44.70;;;;;;4367738;32;20077;-65
2021/07/16 10:42:27;;;;;;;6.62;5.22;;;29.50;44.30;;;;;;4365847;32;20180;-70
2021/07/16 10:45:03;;;;;;;9.18;5.90;;;29.40;46.10;;;;;;4384077;32;20185;-70
2021/07/16 10:47:49;;;;;;;7.00;5.25;;;29.40;46.90;;;;;;4363753;32;20254;-70
2021/07/16 10:50:36;;;;;;;8.35;5.65;;;29.20;47.40;;;;;;4369580;32;20680;-65
2021/07/16 10:53:03;;;;;;;6.53;5.57;;;29.10;47.10;;;;;;4356532;32;20848;-62
2021/07/16 10:55:32;;;;;;;6.40;4.80;;;28.90;47.10;;;;;;4363477;32;20562;-65
2021/07/16 10:57:59;;;;;;;5.95;5.00;;;28.70;47.50;;;;;;4383340;32;20088;-67
2021/07/16 11:00:37;;;;;;;7.53;5.43;;;28.60;48.40;;;;;;4366815;32;20108;-67
2021/07/16 11:03:08;;;;;;;7.25;5.37;;;28.60;48.70;;;;;;4378785;32;20105;-64
2021/07/16 11:05:38;;;;;;;7.82;5.45;;;28.70;48.80;;;;;;4371774;32;20105;-64
2021/07/16 11:08:06;;;;;;;6.97;5.30;;;28.40;49.60;;;;;;4368510;32;20262;-67
2021/07/16 11:10:54;;;;;;;6.82;5.20;;;28.40;50.20;;;;;;4370399;32;20062;-66
2021/07/16 11:13:46;;;;;;;6.12;4.87;;;28.40;50.60;;;;;;4383064;32;20519;-63
2021/07/16 11:16:37;;;;;;;6.55;5.12;;;28.60;50.60;;;;;;4382198;32;20062;-69
2021/07/16 11:19:06;;;;;;;7.62;6.00;;;28.70;50.10;;;;;;4375568;32;20072;-70
2021/07/16 11:21:49;;;;;;;7.30;5.68;;;28.70;50.50;;;;;;4369209;32;20524;-70
2021/07/16 11:24:18;;;;;;;7.90;5.18;;;28.80;50.30;;;;;;4388290;32;20125;-76
2021/07/16 11:26:56;;;;;;;7.07;5.47;;;28.90;50.20;;;;;;4375577;32;21130;-75
2021/07/16 11:29:37;;;;;;;7.47;6.00;;;28.70;50.30;;;;;;4382336;32;20561;-71
2021/07/16 11:32:13;;;;;;;6.90;5.03;;;28.50;51.60;;;;;;4357053;32;20078;-70
2021/07/16 11:35:06;;;;;;;7.85;5.50;;;28.60;50.90;;;;;;4374045;32;20122;-68
2021/07/16 11:37:48;;;;;;;7.62;5.78;;;29.10;49.50;;;;;;4366093;32;20113;-74
2021/07/16 11:40:25;;;;;;;8.00;5.78;;;29.20;49.20;;;;;;4368679;32;20104;-67
2021/07/16 11:42:56;;;;;;;6.53;5.47;;;29.40;47.80;;;;;;4367705;32;20101;-72
2021/07/16 11:45:32;;;;;;;8.85;6.00;;;28.90;48.90;;;;;;4376320;32;20070;-76
2021/07/16 11:48:00;;;;;;;7.50;6.07;;;29.00;48.70;;;;;;4383390;32;20078;-76
2021/07/16 11:50:26;;;;;;;11.48;6.20;;;29.40;48.10;;;;;;4355929;32;20440;-75
2021/07/16 11:52:56;;;;;;;8.40;5.50;;;29.70;46.70;;;;;;4366857;32;20153;-69
2021/07/16 11:55:29;;;;;;;7.50;5.45;;;29.60;45.80;;;;;;4380426;32;20064;-69
2021/07/16 11:58:01;;;;;;;7.97;5.82;;;29.10;46.40;;;;;;4377925;32;20062;-70
2021/07/16 12:00:30;;;;;;;7.95;5.45;;;29.50;46.70;;;;;;4380520;32;20129;-74
2021/07/16 12:03:04;;;;;;;8.00;6.10;;;29.70;46.00;;;;;;4372337;32;20074;-72
2021/07/16 12:05:33;;;;;;;14.82;6.12;;;29.80;45.30;;;;;;4373778;32;20059;-72
2021/07/16 12:07:59;;;;;;;6.97;5.65;;;29.70;45.50;;;;;;4345856;32;20080;-73
2021/07/16 12:10:26;;;;;;;7.78;5.97;;;29.10;47.30;;;;;;4364035;32;20109;-72
2021/07/16 12:13:00;;;;;;;8.23;5.93;;;29.10;48.10;;;;;;4380732;32;20062;-74
2021/07/16 12:15:26;;;;;;;8.00;6.18;;;29.20;48.80;;;;;;4386515;32;20101;-76
2021/07/16 12:17:53;;;;;;;8.60;5.62;;;29.20;48.50;;;;;;4375403;32;20081;-73
2021/07/16 12:20:21;;;;;;;8.48;5.60;;;29.20;48.80;;;;;;4385553;32;20117;-72
2021/07/16 12:22:47;;;;;;;7.93;6.10;;;29.10;49.00;;;;;;4355256;32;20535;-73
2021/07/16 12:25:15;;;;;;;8.43;5.97;;;29.10;49.30;;;;;;4350345;32;20066;-74
2021/07/16 12:27:41;;;;;;;8.85;5.90;;;29.00;49.00;;;;;;4364166;32;20110;-76
2021/07/16 12:30:13;;;;;;;10.45;6.40;;;28.80;50.50;;;;;;4370846;32;20062;-73
2021/07/16 12:32:45;;;;;;;7.18;5.97;;;29.00;50.60;;;;;;4374152;32;20069;-73
2021/07/16 12:35:17;;;;;;;10.90;6.50;;;28.90;51.30;;;;;;4374171;32;20066;-74
2021/07/16 12:37:44;;;;;;;9.38;6.07;;;28.80;50.90;;;;;;4382012;32;20081;-73
2021/07/16 12:40:10;;;;;;;10.00;7.18;;;28.70;51.50;;;;;;4378039;32;20145;-72
2021/07/16 12:42:37;;;;;;;8.55;6.30;;;28.70;52.20;;;;;;4363514;32;20074;-73
2021/07/16 12:45:09;;;;;;;9.45;5.97;;;28.60;52.10;;;;;;4373686;32;20093;-70
2021/07/16 12:47:56;;;;;;;8.60;6.57;;;28.70;52.50;;;;;;4365651;32;20078;-73
2021/07/16 12:50:23;;;;;;;10.98;6.00;;;28.60;53.30;;;;;;4377251;32;20090;-75
2021/07/16 12:52:57;;;;;;;8.70;6.00;;;28.50;53.70;;;;;;4356163;32;20055;-77
2021/07/16 12:55:23;;;;;;;8.02;6.10;;;28.40;55.60;;;;;;4385450;32;20082;-76
2021/07/16 12:58:03;;;;;;;10.13;6.10;;;28.30;57.00;;;;;;4369133;32;20082;-73
2021/07/16 13:00:29;;;;;;;9.75;6.40;;;28.10;58.80;;;;;;4360174;32;20184;-72